createdAt,value
2023-05-12T00:00:08.658Z,12.40
2023-05-12T00:00:40.566Z,12.40
2023-05-12T00:01:14.147Z,12.40
2023-05-12T00:01:46.343Z,12.40
2023-05-12T00:02:18.237Z,12.40
2023-05-12T00:02:51.066Z,12.40
2023-05-12T00:03:23.838Z,12.40
2023-05-12T00:03:56.100Z,12.40
2023-05-12T00:04:29.168Z,12.40
2023-05-12T00:05:01.323Z,12.40
2023-05-12T00:05:33.431Z,12.40
2023-05-12T00:06:06.534Z,12.40
2023-05-12T00:06:39.647Z,12.40
2023-05-12T00:07:12.254Z,12.30
2023-05-12T00:07:44.987Z,12.40
2023-05-12T00:08:16.900Z,12.40
2023-05-12T00:08:48.719Z,12.40
2023-05-12T00:09:21.500Z,12.40
2023-05-12T00:09:53.330Z,12.40
2023-05-12T00:10:27.550Z,12.40
2023-05-12T00:11:00.596Z,12.40
2023-05-12T00:11:32.460Z,12.30
2023-05-12T00:12:04.958Z,12.40
2023-05-12T00:12:37.249Z,12.40
2023-05-12T00:13:10.245Z,12.30
2023-05-12T00:13:42.156Z,12.40
2023-05-12T00:14:13.948Z,12.40
2023-05-12T00:14:46.793Z,12.40
2023-05-12T00:15:19.747Z,12.40
2023-05-12T00:15:51.882Z,12.30
2023-05-12T00:16:24.707Z,12.40
2023-05-12T00:16:56.643Z,12.40
2023-05-12T00:17:28.575Z,12.30
2023-05-12T00:18:01.391Z,12.30
2023-05-12T00:18:33.222Z,12.30
2023-05-12T00:19:05.142Z,12.30
2023-05-12T00:19:37.969Z,12.30
2023-05-12T00:20:11.340Z,12.30
2023-05-12T00:20:43.428Z,12.30
2023-05-12T00:21:16.189Z,12.30
2023-05-12T00:21:49.347Z,12.30
2023-05-12T00:22:21.131Z,12.20
2023-05-12T00:22:52.973Z,12.20
2023-05-12T00:23:25.746Z,12.20
2023-05-12T00:23:57.522Z,12.10
2023-05-12T00:24:30.546Z,12.10
2023-05-12T00:25:03.337Z,12.10
2023-05-12T00:25:35.515Z,12.10
2023-05-12T00:26:07.343Z,12.20
2023-05-12T00:26:40.119Z,12.20
2023-05-12T00:27:11.947Z,12.20
2023-05-12T00:27:44.363Z,12.20
2023-05-12T00:28:17.275Z,12.20
2023-05-12T00:28:50.038Z,12.10
2023-05-12T00:29:21.854Z,12.10
2023-05-12T00:29:53.634Z,12.10
2023-05-12T00:30:26.506Z,12.10
2023-05-12T00:31:02.259Z,12.20
2023-05-12T00:31:34.098Z,12.20
2023-05-12T00:32:08.178Z,12.20
2023-05-12T00:32:40.018Z,12.20
2023-05-12T00:33:11.943Z,12.20
2023-05-12T00:33:44.666Z,12.20
2023-05-12T00:34:16.442Z,12.20
2023-05-12T00:34:50.195Z,12.30
2023-05-12T00:35:22.167Z,12.30
2023-05-12T00:35:54.911Z,12.30
2023-05-12T00:36:26.927Z,12.30
2023-05-12T00:37:00.111Z,12.30
2023-05-12T00:37:32.867Z,12.30
2023-05-12T00:38:04.638Z,12.30
2023-05-12T00:38:37.257Z,12.30
2023-05-12T00:39:10.802Z,12.30
2023-05-12T00:39:42.586Z,12.30
2023-05-12T00:40:14.460Z,12.30
2023-05-12T00:40:47.214Z,12.30
2023-05-12T00:41:19.031Z,12.30
2023-05-12T00:41:55.636Z,12.30
2023-05-12T00:42:28.458Z,12.30
2023-05-12T00:43:00.314Z,12.20
2023-05-12T00:43:33.477Z,12.20
2023-05-12T00:44:06.523Z,12.20
2023-05-12T00:44:38.591Z,12.20
2023-05-12T00:45:11.256Z,12.20
2023-05-12T00:45:44.580Z,12.20
2023-05-12T00:46:17.916Z,12.20
2023-05-12T00:46:50.525Z,12.20
2023-05-12T00:47:23.405Z,12.20
2023-05-12T00:47:55.550Z,12.20
2023-05-12T00:48:27.711Z,12.20
2023-05-12T00:49:00.508Z,12.20
2023-05-12T00:49:32.633Z,12.30
2023-05-12T00:50:06.318Z,12.30
2023-05-12T00:50:39.121Z,12.20
2023-05-12T00:51:12.202Z,12.20
2023-05-12T00:51:44.511Z,12.20
2023-05-12T00:52:18.724Z,12.20
2023-05-12T00:52:50.814Z,12.30
2023-05-12T00:53:22.986Z,12.20
2023-05-12T00:53:56.376Z,12.10
2023-05-12T00:54:30.107Z,12.10
2023-05-12T00:55:03.286Z,12.10
2023-05-12T00:55:36.263Z,12.10
2023-05-12T00:56:10.067Z,12.10
2023-05-12T00:56:42.094Z,12.10
2023-05-12T00:57:14.001Z,12.10
2023-05-12T00:57:47.111Z,12.10
2023-05-12T00:58:19.047Z,12.10
2023-05-12T00:58:50.842Z,12.10
2023-05-12T00:59:23.573Z,12.10
2023-05-12T00:59:55.756Z,12.10
2023-05-12T01:00:27.516Z,12.10
2023-05-12T01:01:00.324Z,12.10
2023-05-12T01:01:32.633Z,12.10
2023-05-12T01:02:04.952Z,12.10
2023-05-12T01:02:38.149Z,12.10
2023-05-12T01:03:10.144Z,12.10
2023-05-12T01:03:42.145Z,12.10
2023-05-12T01:04:15.051Z,12.10
2023-05-12T01:04:47.628Z,12.10
2023-05-12T01:05:20.675Z,12.10
2023-05-12T01:06:00.130Z,12.10
2023-05-12T01:06:38.199Z,12.10
2023-05-12T01:07:15.971Z,12.10
2023-05-12T01:07:50.996Z,12.10
2023-05-12T01:08:23.259Z,12.00
2023-05-12T01:08:55.637Z,12.00
2023-05-12T01:09:28.442Z,12.00
2023-05-12T01:10:00.304Z,12.00
2023-05-12T01:10:32.135Z,12.00
2023-05-12T01:11:04.033Z,12.00
2023-05-12T01:11:36.753Z,12.00
2023-05-12T01:12:08.623Z,12.00
2023-05-12T01:12:40.391Z,11.90
2023-05-12T01:13:13.209Z,11.90
2023-05-12T01:13:45.098Z,12.00
2023-05-12T01:14:16.931Z,12.00
2023-05-12T01:14:49.102Z,12.00
2023-05-12T01:15:21.925Z,12.00
2023-05-12T01:15:55.964Z,12.00
2023-05-12T01:16:35.164Z,12.00
2023-05-12T01:17:11.514Z,12.00
2023-05-12T01:17:48.437Z,11.90
2023-05-12T01:18:23.208Z,11.90
2023-05-12T01:18:56.704Z,11.90
2023-05-12T01:19:40.535Z,11.90
2023-05-12T01:20:14.922Z,11.90
2023-05-12T01:20:48.758Z,11.80
2023-05-12T01:21:20.620Z,11.80
2023-05-12T01:21:52.850Z,11.80
2023-05-12T01:22:31.141Z,11.80
2023-05-12T01:23:05.422Z,11.80
2023-05-12T01:23:42.482Z,11.80
2023-05-12T01:24:18.640Z,11.80
2023-05-12T01:24:52.509Z,11.80
2023-05-12T01:25:25.036Z,11.70
2023-05-12T01:26:04.760Z,11.70
2023-05-12T01:26:36.631Z,11.80
2023-05-12T01:27:08.993Z,11.60
2023-05-12T01:27:42.138Z,11.60
2023-05-12T01:28:14.244Z,11.60
2023-05-12T01:28:47.148Z,11.60
2023-05-12T01:29:20.164Z,11.60
2023-05-12T01:29:53.524Z,11.70
2023-05-12T01:30:26.761Z,11.60
2023-05-12T01:30:59.318Z,11.70
2023-05-12T01:31:33.120Z,11.60
2023-05-12T01:32:05.421Z,11.60
2023-05-12T01:32:39.285Z,11.60
2023-05-12T01:33:12.186Z,11.60
2023-05-12T01:33:44.144Z,11.60
2023-05-12T01:34:18.278Z,11.60
2023-05-12T01:34:51.291Z,11.60
2023-05-12T01:35:23.094Z,11.70
2023-05-12T01:35:54.867Z,11.70
2023-05-12T01:36:27.628Z,11.70
2023-05-12T01:36:59.407Z,11.70
2023-05-12T01:37:31.203Z,11.70
2023-05-12T01:38:04.144Z,11.70
2023-05-12T01:38:35.922Z,11.70
2023-05-12T01:39:07.750Z,11.70
2023-05-12T01:39:40.514Z,11.70
2023-05-12T01:40:12.680Z,11.70
2023-05-12T01:40:44.463Z,11.70
2023-05-12T01:41:18.563Z,11.80
2023-05-12T01:41:50.371Z,11.70
2023-05-12T01:42:22.430Z,11.70
2023-05-12T01:42:55.614Z,11.80
2023-05-12T01:43:27.387Z,11.80
2023-05-12T01:43:59.207Z,11.80
2023-05-12T01:44:31.350Z,11.80
2023-05-12T01:45:04.330Z,11.80
2023-05-12T01:45:36.409Z,11.80
2023-05-12T01:46:10.665Z,11.80
2023-05-12T01:46:43.527Z,11.90
2023-05-12T01:47:15.804Z,11.80
2023-05-12T01:47:47.718Z,11.80
2023-05-12T01:48:20.497Z,11.90
2023-05-12T01:48:52.289Z,11.80
2023-05-12T01:49:24.107Z,11.80
2023-05-12T01:49:56.908Z,11.80
2023-05-12T01:50:28.791Z,11.80
2023-05-12T01:51:00.959Z,11.70
2023-05-12T01:51:33.827Z,11.70
2023-05-12T01:52:06.314Z,11.80
2023-05-12T01:52:38.103Z,11.80
2023-05-12T01:53:10.362Z,11.80
2023-05-12T01:53:43.176Z,11.80
2023-05-12T01:54:15.227Z,11.80
2023-05-12T01:54:47.018Z,11.80
2023-05-12T01:55:18.985Z,11.80
2023-05-12T01:55:51.710Z,11.80
2023-05-12T01:56:24.795Z,11.80
2023-05-12T01:56:56.659Z,11.80
2023-05-12T01:57:29.393Z,11.80
2023-05-12T01:58:01.217Z,11.90
2023-05-12T01:58:33.001Z,11.80
2023-05-12T01:59:05.865Z,11.80
2023-05-12T01:59:37.668Z,11.80
2023-05-12T02:00:10.873Z,11.80
2023-05-12T02:00:43.595Z,11.80
2023-05-12T02:01:15.475Z,11.80
2023-05-12T02:01:47.426Z,11.80
2023-05-12T02:02:20.428Z,11.80
2023-05-12T02:02:52.243Z,11.80
2023-05-12T02:03:24.179Z,11.80
2023-05-12T02:03:57.155Z,11.80
2023-05-12T02:04:29.020Z,11.80
2023-05-12T02:05:00.866Z,11.80
2023-05-12T02:05:33.574Z,11.70
2023-05-12T02:06:05.570Z,11.80
2023-05-12T02:06:37.368Z,11.80
2023-05-12T02:07:09.408Z,11.80
2023-05-12T02:07:42.427Z,11.80
2023-05-12T02:08:14.206Z,11.80
2023-05-12T02:08:46.015Z,11.80
2023-05-12T02:09:17.826Z,11.80
2023-05-12T02:09:50.840Z,11.90
2023-05-12T02:10:22.770Z,11.90
2023-05-12T02:11:04.927Z,11.90
2023-05-12T02:11:39.004Z,11.90
2023-05-12T02:12:10.827Z,11.90
2023-05-12T02:12:42.665Z,11.90
2023-05-12T02:13:15.418Z,11.90
2023-05-12T02:13:47.232Z,11.90
2023-05-12T02:14:19.039Z,11.90
2023-05-12T02:14:51.753Z,11.90
2023-05-12T02:15:23.534Z,11.90
2023-05-12T02:15:55.877Z,11.90
2023-05-12T02:16:28.711Z,11.90
2023-05-12T02:17:00.572Z,11.90
2023-05-12T02:17:32.464Z,11.90
2023-05-12T02:18:05.415Z,11.90
2023-05-12T02:18:37.279Z,11.90
2023-05-12T02:19:09.142Z,11.90
2023-05-12T02:19:41.912Z,12.00
2023-05-12T02:20:13.777Z,11.90
2023-05-12T02:20:45.550Z,11.90
2023-05-12T02:21:18.277Z,11.90
2023-05-12T02:21:50.110Z,11.90
2023-05-12T02:22:21.923Z,11.90
2023-05-12T02:22:54.675Z,11.90
2023-05-12T02:23:26.459Z,11.90
2023-05-12T02:23:58.309Z,11.90
2023-05-12T02:24:31.125Z,12.00
2023-05-12T02:25:02.982Z,12.00
2023-05-12T02:25:34.734Z,12.00
2023-05-12T02:26:06.569Z,12.00
2023-05-12T02:26:40.655Z,12.00
2023-05-12T02:27:12.468Z,12.00
2023-05-12T02:27:45.024Z,12.00
2023-05-12T02:28:17.870Z,12.00
2023-05-12T02:28:49.651Z,12.00
2023-05-12T02:29:21.441Z,12.00
2023-05-12T02:29:54.176Z,12.00
2023-05-12T02:30:25.953Z,12.00
2023-05-12T02:30:57.877Z,11.90
2023-05-12T02:31:29.788Z,12.00
2023-05-12T02:32:02.609Z,12.00
2023-05-12T02:32:34.494Z,11.90
2023-05-12T02:33:06.300Z,12.00
2023-05-12T02:33:38.135Z,11.90
2023-05-12T02:34:10.945Z,12.00
2023-05-12T02:34:42.762Z,12.00
2023-05-12T02:35:14.637Z,12.00
2023-05-12T02:35:47.443Z,12.00
2023-05-12T02:36:19.196Z,12.00
2023-05-12T02:36:52.133Z,12.00
2023-05-12T02:37:24.152Z,12.00
2023-05-12T02:37:55.965Z,12.00
2023-05-12T02:38:28.709Z,12.00
2023-05-12T02:39:00.539Z,11.90
2023-05-12T02:39:32.388Z,11.90
2023-05-12T02:40:05.862Z,11.90
2023-05-12T02:40:38.860Z,11.90
2023-05-12T02:41:10.723Z,11.90
2023-05-12T02:41:43.854Z,11.90
2023-05-12T02:42:16.810Z,11.90
2023-05-12T02:42:48.586Z,11.90
2023-05-12T02:43:20.370Z,11.90
2023-05-12T02:43:52.121Z,11.90
2023-05-12T02:44:24.918Z,11.90
2023-05-12T02:44:56.692Z,11.90
2023-05-12T02:45:28.576Z,11.90
2023-05-12T02:46:01.358Z,11.90
2023-05-12T02:46:33.477Z,11.90
2023-05-12T02:47:05.914Z,11.90
2023-05-12T02:47:37.864Z,11.90
2023-05-12T02:48:10.705Z,11.90
2023-05-12T02:48:42.502Z,11.90
2023-05-12T02:49:14.302Z,11.90
2023-05-12T02:49:47.008Z,11.90
2023-05-12T02:50:19.160Z,11.90
2023-05-12T02:50:51.167Z,11.90
2023-05-12T02:51:24.002Z,11.90
2023-05-12T02:51:55.818Z,11.90
2023-05-12T02:52:27.648Z,11.90
2023-05-12T02:52:59.416Z,11.90
2023-05-12T02:53:32.157Z,11.90
2023-05-12T02:54:04.113Z,11.90
2023-05-12T02:54:36.639Z,11.90
2023-05-12T02:55:08.867Z,11.90
2023-05-12T02:55:41.631Z,12.00
2023-05-12T02:56:13.427Z,12.00
2023-05-12T02:56:46.568Z,12.00
2023-05-12T02:57:19.368Z,12.00
2023-05-12T02:57:51.179Z,12.00
2023-05-12T02:58:22.997Z,12.00
2023-05-12T02:58:55.718Z,12.00
2023-05-12T02:59:27.504Z,12.00
2023-05-12T02:59:59.316Z,12.00
2023-05-12T03:00:32.092Z,12.00
2023-05-12T03:01:10.981Z,12.00
2023-05-12T03:01:44.464Z,12.00
2023-05-12T03:02:16.307Z,12.00
2023-05-12T03:02:48.200Z,12.00
2023-05-12T03:03:21.201Z,11.90
2023-05-12T03:03:53.140Z,12.00
2023-05-12T03:04:25.056Z,12.00
2023-05-12T03:04:57.815Z,12.00
2023-05-12T03:05:29.864Z,12.00
2023-05-12T03:06:01.685Z,12.00
2023-05-12T03:06:34.520Z,12.00
2023-05-12T03:07:07.038Z,12.00
2023-05-12T03:07:39.409Z,12.00
2023-05-12T03:08:12.232Z,12.00
2023-05-12T03:08:44.035Z,12.00
2023-05-12T03:09:16.580Z,12.00
2023-05-12T03:09:49.374Z,12.00
2023-05-12T03:10:21.620Z,12.00
2023-05-12T03:10:53.628Z,12.00
2023-05-12T03:11:26.678Z,12.00
2023-05-12T03:11:59.848Z,12.00
2023-05-12T03:12:31.859Z,12.00
2023-05-12T03:13:04.662Z,12.00
2023-05-12T03:13:36.538Z,12.00
2023-05-12T03:14:08.293Z,12.00
2023-05-12T03:14:41.012Z,12.00
2023-05-12T03:15:13.014Z,12.00
2023-05-12T03:15:44.849Z,12.00
2023-05-12T03:16:19.632Z,12.10
2023-05-12T03:16:51.766Z,12.00
2023-05-12T03:17:23.653Z,12.00
2023-05-12T03:17:56.491Z,12.00
2023-05-12T03:18:28.527Z,12.00
2023-05-12T03:19:00.352Z,12.00
2023-05-12T03:19:32.157Z,12.00
2023-05-12T03:20:05.560Z,12.00
2023-05-12T03:20:37.591Z,12.00
2023-05-12T03:21:09.459Z,12.00
2023-05-12T03:21:41.869Z,12.00
2023-05-12T03:22:14.864Z,12.00
2023-05-12T03:22:46.726Z,12.00
2023-05-12T03:23:18.714Z,12.00
2023-05-12T03:23:52.661Z,12.00
2023-05-12T03:24:24.462Z,12.00
2023-05-12T03:24:56.380Z,12.00
2023-05-12T03:25:29.252Z,12.00
2023-05-12T03:26:01.413Z,12.00
2023-05-12T03:26:33.208Z,12.00
2023-05-12T03:27:07.541Z,12.00
2023-05-12T03:27:39.373Z,12.00
2023-05-12T03:28:11.556Z,12.10
2023-05-12T03:28:44.358Z,12.00
2023-05-12T03:29:16.186Z,12.00
2023-05-12T03:29:48.012Z,12.00
2023-05-12T03:30:20.945Z,12.10
2023-05-12T03:30:53.558Z,12.00
2023-05-12T03:31:26.004Z,12.00
2023-05-12T03:31:59.005Z,12.10
2023-05-12T03:32:31.158Z,12.10
2023-05-12T03:33:03.057Z,12.10
2023-05-12T03:33:35.826Z,12.10
2023-05-12T03:34:07.690Z,12.10
2023-05-12T03:34:39.682Z,12.10
2023-05-12T03:35:12.530Z,12.00
2023-05-12T03:35:44.322Z,12.00
2023-05-12T03:36:17.095Z,12.00
2023-05-12T03:36:48.892Z,12.00
2023-05-12T03:37:20.864Z,12.00
2023-05-12T03:37:53.608Z,12.00
2023-05-12T03:38:25.397Z,12.00
2023-05-12T03:38:57.301Z,12.00
2023-05-12T03:39:29.062Z,12.00
2023-05-12T03:40:01.865Z,11.90
2023-05-12T03:40:33.701Z,11.90
2023-05-12T03:41:06.143Z,11.90
2023-05-12T03:41:38.160Z,11.90
2023-05-12T03:42:12.209Z,12.00
2023-05-12T03:42:44.305Z,12.00
2023-05-12T03:43:17.126Z,12.00
2023-05-12T03:43:49.011Z,11.90
2023-05-12T03:44:21.181Z,11.90
2023-05-12T03:44:53.927Z,11.90
2023-05-12T03:45:25.669Z,11.90
2023-05-12T03:45:57.667Z,11.90
2023-05-12T03:46:30.517Z,11.90
2023-05-12T03:47:02.407Z,11.90
2023-05-12T03:47:35.765Z,11.90
2023-05-12T03:48:08.756Z,11.90
2023-05-12T03:48:40.733Z,11.90
2023-05-12T03:49:12.695Z,11.90
2023-05-12T03:49:44.507Z,11.90
2023-05-12T03:50:17.621Z,12.00
2023-05-12T03:50:49.583Z,12.00
2023-05-12T03:51:21.345Z,12.00
2023-05-12T03:51:54.173Z,11.90
2023-05-12T03:52:25.966Z,11.90
2023-05-12T03:52:57.766Z,11.90
2023-05-12T03:53:30.594Z,11.90
2023-05-12T03:54:02.433Z,11.90
2023-05-12T03:54:36.023Z,11.90
2023-05-12T03:55:10.272Z,11.90
2023-05-12T03:55:42.298Z,11.90
2023-05-12T03:56:15.478Z,11.90
2023-05-12T03:56:48.285Z,11.90
2023-05-12T03:57:21.524Z,11.90
2023-05-12T03:57:53.313Z,11.90
2023-05-12T03:58:26.364Z,11.90
2023-05-12T03:58:58.193Z,11.90
2023-05-12T03:59:31.222Z,11.90
2023-05-12T04:00:04.463Z,11.90
2023-05-12T04:00:36.442Z,11.90
2023-05-12T04:01:08.448Z,11.90
2023-05-12T04:01:40.686Z,11.90
2023-05-12T04:02:13.790Z,11.90
2023-05-12T04:02:46.489Z,11.90
2023-05-12T04:03:18.536Z,11.90
2023-05-12T04:03:51.511Z,11.90
2023-05-12T04:04:23.450Z,11.90
2023-05-12T04:04:55.217Z,11.90
2023-05-12T04:05:27.992Z,11.90
2023-05-12T04:05:59.969Z,11.90
2023-05-12T04:06:31.764Z,11.90
2023-05-12T04:07:04.556Z,11.90
2023-05-12T04:07:36.730Z,11.90
2023-05-12T04:08:08.659Z,11.90
2023-05-12T04:08:42.258Z,11.90
2023-05-12T04:09:14.142Z,11.90
2023-05-12T04:09:46.520Z,11.90
2023-05-12T04:10:20.552Z,11.90
2023-05-12T04:10:54.968Z,11.90
2023-05-12T04:11:26.800Z,11.90
2023-05-12T04:12:00.119Z,11.90
2023-05-12T04:12:34.342Z,11.90
2023-05-12T04:13:07.981Z,11.90
2023-05-12T04:13:40.856Z,11.90
2023-05-12T04:14:12.626Z,11.90
2023-05-12T04:14:45.424Z,11.90
2023-05-12T04:15:17.373Z,11.90
2023-05-12T04:15:49.239Z,11.90
2023-05-12T04:16:21.228Z,11.90
2023-05-12T04:16:54.134Z,11.90
2023-05-12T04:17:26.058Z,11.90
2023-05-12T04:17:57.912Z,12.00
2023-05-12T04:18:30.266Z,12.00
2023-05-12T04:19:03.411Z,12.00
2023-05-12T04:19:35.333Z,12.00
2023-05-12T04:20:08.790Z,12.00
2023-05-12T04:20:41.669Z,12.10
2023-05-12T04:21:13.506Z,12.00
2023-05-12T04:21:45.906Z,12.10
2023-05-12T04:22:18.660Z,12.10
2023-05-12T04:22:51.350Z,12.10
2023-05-12T04:23:23.490Z,12.10
2023-05-12T04:23:56.272Z,12.20
2023-05-12T04:24:28.074Z,12.20
2023-05-12T04:24:59.897Z,12.20
2023-05-12T04:25:32.775Z,12.20
2023-05-12T04:26:05.166Z,12.20
2023-05-12T04:26:37.029Z,12.10
2023-05-12T04:27:09.760Z,12.10
2023-05-12T04:27:42.909Z,12.10
2023-05-12T04:28:14.751Z,12.20
2023-05-12T04:28:47.617Z,12.10
2023-05-12T04:29:20.534Z,12.10
2023-05-12T04:29:52.337Z,12.10
2023-05-12T04:30:24.115Z,12.10
2023-05-12T04:30:55.911Z,12.10
2023-05-12T04:31:28.736Z,12.10
2023-05-12T04:32:00.718Z,12.10
2023-05-12T04:32:32.672Z,12.10
2023-05-12T04:33:04.608Z,12.10
2023-05-12T04:33:37.347Z,12.10
2023-05-12T04:34:09.218Z,12.10
2023-05-12T04:34:41.490Z,12.10
2023-05-12T04:35:14.274Z,12.10
2023-05-12T04:35:46.647Z,12.10
2023-05-12T04:36:18.464Z,12.10
2023-05-12T04:36:51.443Z,12.10
2023-05-12T04:37:23.480Z,12.00
2023-05-12T04:37:55.246Z,12.00
2023-05-12T04:38:28.223Z,12.00
2023-05-12T04:39:00.007Z,12.00
2023-05-12T04:39:31.811Z,12.00
2023-05-12T04:40:05.230Z,12.00
2023-05-12T04:40:37.021Z,12.00
2023-05-12T04:41:09.145Z,12.00
2023-05-12T04:41:41.874Z,11.90
2023-05-12T04:42:13.679Z,11.90
2023-05-12T04:42:46.772Z,11.90
2023-05-12T04:44:28.906Z,11.80
2023-05-12T04:45:00.701Z,11.90
2023-05-12T04:45:33.429Z,11.90
2023-05-12T04:46:05.555Z,11.90
2023-05-12T04:46:37.449Z,11.90
2023-05-12T04:47:09.488Z,11.90
2023-05-12T04:47:42.364Z,11.90
2023-05-12T04:48:14.201Z,11.90
2023-05-12T04:48:46.189Z,11.90
2023-05-12T04:49:19.112Z,11.90
2023-05-12T04:49:50.945Z,11.90
2023-05-12T04:50:22.783Z,11.90
2023-05-12T04:50:55.537Z,11.90
2023-05-12T04:51:27.388Z,11.90
2023-05-12T04:51:59.176Z,11.90
2023-05-12T04:52:31.955Z,11.90
2023-05-12T04:53:03.717Z,11.90
2023-05-12T04:53:36.201Z,11.90
2023-05-12T04:54:10.264Z,11.90
2023-05-12T04:54:42.035Z,12.00
2023-05-12T04:55:13.878Z,11.90
2023-05-12T04:55:46.660Z,11.90
2023-05-12T04:56:18.521Z,11.90
2023-05-12T04:56:51.473Z,11.90
2023-05-12T04:57:23.378Z,11.90
2023-05-12T04:57:56.503Z,11.90
2023-05-12T04:58:29.251Z,11.90
2023-05-12T04:59:01.147Z,11.90
2023-05-12T04:59:32.930Z,11.90
2023-05-12T05:00:06.964Z,11.90
2023-05-12T05:00:38.802Z,11.90
2023-05-12T05:01:12.237Z,11.90
2023-05-12T05:01:45.135Z,11.90
2023-05-12T05:02:17.051Z,11.90
2023-05-12T05:02:49.054Z,11.90
2023-05-12T05:03:22.474Z,11.90
2023-05-12T05:03:54.546Z,12.00
2023-05-12T05:04:26.402Z,11.90
2023-05-12T05:04:58.203Z,11.90
2023-05-12T05:05:30.951Z,11.90
2023-05-12T05:06:02.768Z,11.90
2023-05-12T05:06:34.653Z,11.90
2023-05-12T05:07:07.540Z,11.90
2023-05-12T05:07:39.365Z,11.90
2023-05-12T05:08:11.130Z,11.90
2023-05-12T05:08:43.986Z,11.90
2023-05-12T05:09:15.933Z,11.90
2023-05-12T05:09:47.716Z,11.90
2023-05-12T05:10:19.515Z,11.90
2023-05-12T05:10:52.349Z,11.90
2023-05-12T05:11:24.130Z,11.90
2023-05-12T05:11:56.053Z,11.90
2023-05-12T05:12:28.782Z,11.90
2023-05-12T05:13:01.923Z,11.90
2023-05-12T05:13:33.767Z,11.90
2023-05-12T05:14:06.662Z,11.90
2023-05-12T05:14:39.024Z,11.90
2023-05-12T05:15:11.593Z,11.90
2023-05-12T05:15:51.195Z,11.90
2023-05-12T05:16:23.490Z,11.90
2023-05-12T05:16:56.358Z,11.90
2023-05-12T05:17:28.513Z,11.90
2023-05-12T05:18:01.943Z,11.90
2023-05-12T05:18:35.232Z,12.00
2023-05-12T05:19:15.925Z,12.00
2023-05-12T05:19:59.009Z,12.00
2023-05-12T05:20:34.227Z,12.00
2023-05-12T05:21:06.199Z,12.00
2023-05-12T05:21:38.037Z,12.00
2023-05-12T05:22:10.781Z,12.00
2023-05-12T05:22:42.727Z,12.00
2023-05-12T05:23:14.543Z,12.10
2023-05-12T05:23:47.275Z,12.10
2023-05-12T05:24:19.052Z,12.00
2023-05-12T05:24:50.868Z,12.10
2023-05-12T05:25:23.725Z,12.10
2023-05-12T05:25:56.067Z,12.10
2023-05-12T05:26:27.979Z,12.20
2023-05-12T05:27:00.855Z,12.20
2023-05-12T05:27:32.690Z,12.20
2023-05-12T05:28:07.108Z,12.30
2023-05-12T05:28:40.078Z,12.30
2023-05-12T05:29:11.994Z,12.30
2023-05-12T05:29:43.762Z,12.30
2023-05-12T05:30:16.658Z,12.40
2023-05-12T05:30:48.450Z,12.40
2023-05-12T05:31:20.860Z,12.40
2023-05-12T05:31:53.667Z,12.40
2023-05-12T05:32:25.719Z,12.50
2023-05-12T05:32:57.618Z,12.50
2023-05-12T05:33:30.391Z,12.50
2023-05-12T05:34:02.337Z,12.50
2023-05-12T05:34:34.192Z,12.50
2023-05-12T05:35:07.881Z,12.60
2023-05-12T05:35:39.999Z,12.60
2023-05-12T05:36:12.308Z,12.50
2023-05-12T05:36:45.148Z,12.60
2023-05-12T05:37:18.164Z,12.50
2023-05-12T05:37:50.755Z,12.50
2023-05-12T05:38:23.552Z,12.50
2023-05-12T05:38:55.718Z,12.50
2023-05-12T05:39:30.609Z,12.50
2023-05-12T05:40:03.586Z,12.40
2023-05-12T05:40:45.365Z,12.50
2023-05-12T05:41:22.246Z,12.40
2023-05-12T05:41:54.038Z,12.50
2023-05-12T05:42:25.859Z,12.50
2023-05-12T05:42:58.643Z,12.50
2023-05-12T05:43:31.922Z,12.60
2023-05-12T05:44:03.796Z,12.60
2023-05-12T05:44:36.756Z,12.70
2023-05-12T05:45:09.614Z,12.70
2023-05-12T05:45:41.482Z,12.70
2023-05-12T05:46:14.316Z,12.70
2023-05-12T05:46:46.158Z,12.80
2023-05-12T05:47:18.987Z,12.80
2023-05-12T05:47:53.068Z,12.80
2023-05-12T05:48:25.389Z,12.70
2023-05-12T05:48:58.129Z,12.70
2023-05-12T05:49:29.903Z,12.80
2023-05-12T05:50:01.854Z,12.90
2023-05-12T05:50:34.796Z,12.80
2023-05-12T05:51:06.867Z,12.80
2023-05-12T05:51:38.653Z,12.80
2023-05-12T05:52:11.460Z,12.80
2023-05-12T05:52:43.302Z,12.90
2023-05-12T05:53:18.172Z,12.90
2023-05-12T05:53:49.983Z,12.90
2023-05-12T05:54:23.575Z,12.90
2023-05-12T05:54:56.471Z,12.90
2023-05-12T05:55:28.390Z,12.90
2023-05-12T05:56:00.199Z,12.90
2023-05-12T05:56:35.737Z,13.00
2023-05-12T05:57:07.559Z,13.00
2023-05-12T05:57:39.445Z,13.00
2023-05-12T05:58:12.203Z,13.00
2023-05-12T05:58:45.361Z,13.00
2023-05-12T05:59:17.155Z,13.20
2023-05-12T05:59:49.914Z,13.10
2023-05-12T06:00:22.319Z,13.10
2023-05-12T06:00:54.151Z,13.20
2023-05-12T06:01:27.055Z,13.20
2023-05-12T06:01:59.022Z,13.20
2023-05-12T06:02:32.165Z,13.30
2023-05-12T06:03:05.586Z,13.30
2023-05-12T06:03:37.499Z,13.30
2023-05-12T06:04:09.357Z,13.30
2023-05-12T06:04:42.290Z,13.30
2023-05-12T06:05:14.537Z,13.40
2023-05-12T06:05:46.477Z,13.40
2023-05-12T06:06:19.261Z,13.40
2023-05-12T06:06:51.080Z,13.40
2023-05-12T06:07:22.878Z,13.40
2023-05-12T06:07:55.666Z,13.50
2023-05-12T06:08:27.423Z,13.50
2023-05-12T06:09:00.148Z,13.50
2023-05-12T06:09:32.327Z,13.50
2023-05-12T06:10:05.957Z,13.50
2023-05-12T06:10:37.746Z,13.50
2023-05-12T06:11:09.521Z,13.50
2023-05-12T06:11:42.259Z,13.50
2023-05-12T06:12:14.101Z,13.50
2023-05-12T06:12:46.014Z,13.50
2023-05-12T06:13:18.792Z,13.40
2023-05-12T06:13:52.508Z,13.50
2023-05-12T06:14:25.303Z,13.50
2023-05-12T06:14:57.192Z,13.50
2023-05-12T06:15:29.075Z,13.50
2023-05-12T06:16:01.898Z,13.50
2023-05-12T06:16:33.724Z,13.60
2023-05-12T06:17:06.016Z,13.50
2023-05-12T06:17:39.015Z,13.50
2023-05-12T06:18:10.948Z,13.50
2023-05-12T06:18:42.806Z,13.50
2023-05-12T06:19:15.787Z,13.60
2023-05-12T06:19:49.539Z,13.60
2023-05-12T06:20:23.144Z,13.60
2023-05-12T06:20:55.891Z,13.60
2023-05-12T06:21:27.755Z,13.60
2023-05-12T06:21:59.561Z,13.60
2023-05-12T06:22:33.069Z,13.60
2023-05-12T06:23:05.550Z,13.60
2023-05-12T06:23:37.384Z,13.60
2023-05-12T06:24:10.138Z,13.70
2023-05-12T06:24:41.990Z,13.70
2023-05-12T06:25:13.780Z,13.70
2023-05-12T06:25:48.920Z,13.70
2023-05-12T06:26:21.023Z,13.70
2023-05-12T06:26:52.855Z,13.70
2023-05-12T06:27:25.636Z,13.70
2023-05-12T06:27:57.446Z,13.70
2023-05-12T06:28:29.243Z,13.70
2023-05-12T06:29:03.522Z,13.70
2023-05-12T06:29:35.334Z,13.60
2023-05-12T06:30:09.414Z,13.60
2023-05-12T06:30:42.327Z,13.60
2023-05-12T06:31:14.124Z,13.60
2023-05-12T06:31:45.945Z,13.60
2023-05-12T06:32:19.093Z,13.60
2023-05-12T06:32:51.043Z,13.60
2023-05-12T06:33:22.847Z,13.60
2023-05-12T06:33:55.571Z,13.60
2023-05-12T06:34:27.656Z,13.60
2023-05-12T06:34:59.546Z,13.60
2023-05-12T06:35:32.544Z,13.60
2023-05-12T06:36:04.729Z,13.70
2023-05-12T06:36:36.508Z,13.70
2023-05-12T06:37:09.292Z,13.70
2023-05-12T06:37:41.218Z,13.70
2023-05-12T06:38:12.997Z,13.70
2023-05-12T06:38:45.803Z,13.70
2023-05-12T06:39:17.610Z,13.70
2023-05-12T06:39:49.374Z,13.70
2023-05-12T06:40:22.130Z,13.70
2023-05-12T06:40:53.926Z,13.60
2023-05-12T06:41:25.862Z,13.60
2023-05-12T06:41:58.671Z,13.70
2023-05-12T06:42:30.498Z,13.70
2023-05-12T06:43:03.499Z,13.80
2023-05-12T06:43:35.373Z,13.70
2023-05-12T06:44:12.564Z,13.60
2023-05-12T06:44:45.497Z,13.60
2023-05-12T06:45:17.539Z,13.70
2023-05-12T06:45:50.492Z,13.70
2023-05-12T06:46:22.424Z,13.70
2023-05-12T06:46:55.339Z,13.70
2023-05-12T06:47:27.178Z,13.70
2023-05-12T06:47:58.974Z,13.70
2023-05-12T06:48:31.766Z,13.70
2023-05-12T06:49:03.542Z,13.80
2023-05-12T06:49:36.936Z,13.80
2023-05-12T06:50:10.129Z,13.80
2023-05-12T06:50:42.494Z,13.90
2023-05-12T06:51:15.599Z,13.90
2023-05-12T06:51:47.467Z,13.90
2023-05-12T06:52:20.485Z,13.90
2023-05-12T06:52:53.355Z,13.90
2023-05-12T06:53:25.682Z,14.00
2023-05-12T06:53:58.580Z,14.00
2023-05-12T06:54:30.391Z,14.00
2023-05-12T06:55:02.247Z,14.00
2023-05-12T06:55:35.024Z,14.00
2023-05-12T06:56:06.979Z,14.10
2023-05-12T06:56:38.794Z,14.00
2023-05-12T06:57:11.541Z,14.00
2023-05-12T06:57:43.440Z,14.00
2023-05-12T06:58:15.272Z,14.00
2023-05-12T06:58:48.107Z,14.10
2023-05-12T06:59:21.483Z,14.10
2023-05-12T06:59:54.247Z,14.10
2023-05-12T07:00:26.488Z,14.10
2023-05-12T07:00:58.375Z,14.10